KPCD/PCD METAR and TAF weather

Enter ICAO airport designator
Station Type Date Time Source
KPCD METAR 2019/04/25 11:55 UTC NOAA

KPCD 251155Z AUTO 10003KT 3SM -DZ SCT005 SCT015 OVC095 16/16 A2977 RMK AO2 T01600158 10167 20157


Station Type Date Time Source
KPCD Decoded METAR 2019/04/25 11:55 UTC NOAA

Station name not available
Apr 25, 2019 - 07:55 AM EDT / 2019.04.25 1155 UTC
Wind: from the E (100 degrees) at 3 MPH (3 KT):0
Visibility: 3 mile(s):0
Sky conditions: overcast
Weather: light drizzle
Temperature: 60.8 F (16.0 C)
Dew Point: 60.4 F (15.8 C)
Relative Humidity: 98%
Pressure (altimeter): 29.77 in. Hg (1008 hPa)
ob: KPCD 251155Z AUTO 10003KT 3SM -DZ SCT005 SCT015 OVC095 16/16 A2977 RMK AO2 T01600158 10167 20157
cycle: 12

Station Type Date Time Source
KPCD TAF UTC NOAA

Error!

Example: see airport list